Time;durP1;ratioP1;P1;durP2;ratioP2;P2;SDS_P1;SDS_P2;PMS_P1;PMS_P2;Temp;Humidity;BMP_temperature;BMP_pressure;BME280_temperature;BME280_humidity;BME280_pressure;Samples;Min_cycle;Max_cycle;Signal;HPM_P1;HPM_P2
2022/02/21 00:00:17;;;;;;;26.63;4.88;;;10.90;66.80;;;;;;5056721;28;20029;-92
2022/02/21 00:02:46;;;;;;;27.83;5.30;;;10.90;66.30;;;;;;5075882;28;20112;-90
2022/02/21 00:05:14;;;;;;;36.75;5.20;;;10.80;66.70;;;;;;5063186;28;20166;-91
2022/02/21 00:07:40;;;;;;;19.02;3.47;;;10.80;66.20;;;;;;5056093;28;20021;-90
2022/02/21 00:10:07;;;;;;;26.65;4.57;;;10.80;66.00;;;;;;5056070;28;20502;-91
2022/02/21 00:12:34;;;;;;;22.42;4.63;;;10.70;65.30;;;;;;5066837;28;20892;-89
2022/02/21 00:15:01;;;;;;;16.92;4.05;;;10.70;65.90;;;;;;5074104;28;20028;-93
2022/02/21 00:17:26;;;;;;;17.67;3.75;;;10.70;65.60;;;;;;5056143;28;20804;-90
2022/02/21 00:19:52;;;;;;;23.17;3.72;;;10.60;64.50;;;;;;5055856;28;20021;-90
2022/02/21 00:22:18;;;;;;;21.92;4.45;;;10.40;64.40;;;;;;5055908;28;20031;-93
2022/02/21 00:24:43;;;;;;;23.75;5.80;;;10.40;65.20;;;;;;5055848;28;20471;-92
2022/02/21 00:27:09;;;;;;;17.77;3.72;;;10.30;65.20;;;;;;5055991;28;20025;-92
2022/02/21 00:29:35;;;;;;;27.08;4.38;;;10.20;65.20;;;;;;5058863;28;20028;-91
2022/02/21 00:32:00;;;;;;;18.08;5.00;;;10.20;65.10;;;;;;5059468;28;20021;-92
2022/02/21 00:34:26;;;;;;;21.35;5.38;;;10.20;63.80;;;;;;5059436;28;20112;-92
2022/02/21 00:36:52;;;;;;;18.33;3.55;;;10.10;63.90;;;;;;5059490;28;20025;-92
2022/02/21 00:39:17;;;;;;;25.02;4.28;;;10.20;64.60;;;;;;5059320;28;20040;-90
2022/02/21 00:41:43;;;;;;;31.05;4.32;;;10.20;65.00;;;;;;5059505;28;20025;-90
2022/02/21 00:44:09;;;;;;;19.58;4.05;;;10.30;64.50;;;;;;5059425;28;20387;-90
2022/02/21 00:46:34;;;;;;;25.38;5.13;;;10.30;64.30;;;;;;5072826;28;20417;-91
2022/02/21 00:49:01;;;;;;;25.65;4.93;;;10.30;64.50;;;;;;5073110;28;20029;-90
2022/02/21 00:51:27;;;;;;;20.55;4.18;;;10.20;64.50;;;;;;5059243;28;20052;-91
2022/02/21 00:53:53;;;;;;;25.13;4.70;;;10.20;64.90;;;;;;5059467;28;20033;-90
2022/02/21 00:56:19;;;;;;;21.75;5.00;;;10.10;64.70;;;;;;5058771;28;20108;-90
2022/02/21 00:58:44;;;;;;;26.27;4.40;;;10.20;65.60;;;;;;5059290;28;20395;-91
2022/02/21 01:01:10;;;;;;;27.35;4.28;;;10.20;65.40;;;;;;5062980;28;20024;-91
2022/02/21 01:03:36;;;;;;;16.08;3.90;;;10.30;65.70;;;;;;5079247;28;20025;-91
2022/02/21 01:06:01;;;;;;;24.00;5.53;;;10.40;65.10;;;;;;5079034;28;20123;-90
2022/02/21 01:08:27;;;;;;;18.67;3.42;;;10.40;64.80;;;;;;5080057;28;20090;-90
2022/02/21 01:10:53;;;;;;;28.23;4.78;;;10.30;64.30;;;;;;5068706;28;20549;-90
2022/02/21 01:13:18;;;;;;;21.40;3.50;;;10.30;64.20;;;;;;5059337;28;20025;-89
2022/02/21 01:15:44;;;;;;;16.63;4.22;;;10.30;64.40;;;;;;5058759;28;20033;-90
2022/02/21 01:18:10;;;;;;;13.25;3.90;;;10.30;64.00;;;;;;5058521;28;20017;-91
2022/02/21 01:20:35;;;;;;;23.48;4.05;;;10.10;63.10;;;;;;5058539;28;20029;-89
2022/02/21 01:23:01;;;;;;;18.90;3.45;;;10.00;64.10;;;;;;5058790;28;20024;-90
2022/02/21 01:25:27;;;;;;;16.60;3.35;;;10.00;64.70;;;;;;5058960;28;20025;-90
2022/02/21 01:27:53;;;;;;;15.10;3.47;;;9.90;65.40;;;;;;5058445;28;20094;-89
2022/02/21 01:30:19;;;;;;;13.18;2.53;;;9.70;65.00;;;;;;5058304;28;20021;-90
2022/02/21 01:32:45;;;;;;;16.27;3.30;;;9.60;66.50;;;;;;5058551;28;20040;-90
2022/02/21 01:35:11;;;;;;;17.98;3.72;;;9.50;66.40;;;;;;5058486;28;20021;-88
2022/02/21 01:37:36;;;;;;;13.80;3.10;;;9.50;67.20;;;;;;5058910;28;20029;-90
2022/02/21 01:40:07;;;;;;;19.75;3.35;;;9.60;66.50;;;;;;5057938;28;20017;-90
2022/02/21 01:42:33;;;;;;;22.73;3.45;;;9.60;67.10;;;;;;5058284;28;20032;-91
2022/02/21 01:44:59;;;;;;;19.83;3.78;;;9.50;66.50;;;;;;5057727;28;20052;-90
2022/02/21 01:47:25;;;;;;;16.52;3.30;;;9.40;66.70;;;;;;5058235;28;20029;-89
2022/02/21 01:49:51;;;;;;;19.60;3.88;;;9.40;67.50;;;;;;5057942;28;20844;-89
2022/02/21 01:52:18;;;;;;;20.63;3.60;;;9.50;67.20;;;;;;5057718;28;20387;-90
2022/02/21 01:54:45;;;;;;;20.95;5.00;;;9.40;67.10;;;;;;5057975;28;20111;-89
2022/02/21 01:57:13;;;;;;;15.35;3.45;;;9.30;67.30;;;;;;5058030;28;20021;-89
2022/02/21 01:59:39;;;;;;;11.65;2.88;;;9.30;66.70;;;;;;5057688;28;20438;-89
2022/02/21 02:02:07;;;;;;;15.55;3.45;;;9.10;66.20;;;;;;5057977;28;20108;-89
2022/02/21 02:04:33;;;;;;;14.88;3.45;;;9.10;66.80;;;;;;5065691;28;20024;-89
2022/02/21 02:07:01;;;;;;;12.43;2.80;;;9.20;66.60;;;;;;5078043;28;20032;-90
2022/02/21 02:09:27;;;;;;;20.95;4.18;;;9.20;66.60;;;;;;5076972;28;20024;-87
2022/02/21 02:11:53;;;;;;;16.45;3.13;;;9.30;66.60;;;;;;5074103;28;20024;-88
2022/02/21 02:14:41;;;;;;;17.33;3.78;;;9.40;66.30;;;;;;5074279;28;20029;-89
2022/02/21 02:17:11;;;;;;;14.88;2.97;;;9.40;65.70;;;;;;5070142;28;20056;-88
2022/02/21 02:19:38;;;;;;;16.33;3.67;;;9.50;65.60;;;;;;5057366;28;20028;-89
2022/02/21 02:22:15;;;;;;;11.93;3.15;;;9.60;65.10;;;;;;5073035;28;20051;-88
2022/02/21 02:24:42;;;;;;;16.55;3.60;;;9.70;64.50;;;;;;5071744;28;20032;-89
2022/02/21 02:27:09;;;;;;;16.60;3.30;;;9.70;64.90;;;;;;5056924;28;20032;-89
2022/02/21 02:29:36;;;;;;;24.67;4.18;;;9.70;65.90;;;;;;5058292;28;20047;-90
2022/02/21 02:32:03;;;;;;;15.70;2.80;;;9.60;65.60;;;;;;5057120;28;20032;-89
2022/02/21 02:34:28;;;;;;;15.55;2.60;;;9.50;66.30;;;;;;5056510;28;20055;-88
2022/02/21 02:36:54;;;;;;;18.48;3.22;;;9.40;65.90;;;;;;5056889;28;20029;-88
2022/02/21 02:39:20;;;;;;;15.82;3.00;;;9.30;66.10;;;;;;5056759;28;20024;-88
2022/02/21 02:41:46;;;;;;;20.80;4.15;;;9.20;66.10;;;;;;5060466;28;20497;-88
2022/02/21 02:44:11;;;;;;;20.02;3.30;;;9.20;66.50;;;;;;5077050;28;20025;-89
2022/02/21 02:46:37;;;;;;;23.33;4.20;;;9.30;66.60;;;;;;5076552;28;20040;-88
2022/02/21 02:49:04;;;;;;;22.42;3.75;;;9.20;66.60;;;;;;5076058;28;20680;-89
2022/02/21 02:51:30;;;;;;;13.93;2.95;;;9.10;67.20;;;;;;5075892;28;20032;-90
2022/02/21 02:53:55;;;;;;;20.33;3.75;;;9.10;67.20;;;;;;5076571;28;20131;-88
2022/02/21 02:56:21;;;;;;;14.93;3.80;;;9.10;67.60;;;;;;5067610;28;20081;-88
2022/02/21 02:58:47;;;;;;;26.30;4.03;;;9.10;67.30;;;;;;5056598;28;20474;-89
2022/02/21 03:01:12;;;;;;;17.73;3.17;;;9.00;67.50;;;;;;5056547;28;20057;-88
2022/02/21 03:03:39;;;;;;;19.73;3.88;;;8.90;67.80;;;;;;5056400;28;20744;-88
2022/02/21 03:06:04;;;;;;;19.60;3.80;;;9.00;67.70;;;;;;5057281;28;20044;-89
2022/02/21 03:08:30;;;;;;;16.98;3.97;;;8.90;67.30;;;;;;5056267;28;20025;-88
2022/02/21 03:10:56;;;;;;;15.02;3.65;;;8.90;67.90;;;;;;5056634;28;20057;-89
2022/02/21 03:13:22;;;;;;;23.60;4.18;;;9.00;67.90;;;;;;5055982;28;20051;-87
2022/02/21 03:15:47;;;;;;;18.45;4.30;;;8.80;67.50;;;;;;5057637;28;20111;-87
2022/02/21 03:18:13;;;;;;;16.85;4.30;;;8.80;67.60;;;;;;5056152;28;20025;-88
2022/02/21 03:20:39;;;;;;;18.85;4.53;;;8.80;67.80;;;;;;5056063;28;20633;-89
2022/02/21 03:23:04;;;;;;;27.75;4.78;;;8.90;67.40;;;;;;5055693;28;20545;-89
2022/02/21 03:25:30;;;;;;;19.52;3.60;;;8.90;67.40;;;;;;5056192;28;20021;-90
2022/02/21 03:27:56;;;;;;;18.65;3.65;;;8.90;67.00;;;;;;5055763;28;20036;-87
2022/02/21 03:30:22;;;;;;;21.77;4.03;;;8.80;67.10;;;;;;5056010;28;20053;-88
2022/02/21 03:32:48;;;;;;;23.95;4.75;;;8.80;67.00;;;;;;5055802;28;20036;-88
2022/02/21 03:35:14;;;;;;;23.55;4.75;;;8.90;67.40;;;;;;5055870;28;20480;-89
2022/02/21 03:37:40;;;;;;;28.25;4.25;;;8.80;67.60;;;;;;5055804;28;20032;-88
2022/02/21 03:40:06;;;;;;;17.65;4.20;;;8.90;67.10;;;;;;5072200;28;20017;-88
2022/02/21 03:42:32;;;;;;;22.63;3.85;;;8.90;67.10;;;;;;5056324;28;20029;-88
2022/02/21 03:44:59;;;;;;;21.25;4.35;;;8.80;67.30;;;;;;5071861;28;20031;-88
2022/02/21 03:47:25;;;;;;;24.15;4.75;;;8.80;67.20;;;;;;5055599;28;20033;-88
2022/02/21 03:49:50;;;;;;;25.85;3.85;;;8.70;67.10;;;;;;5055602;28;20021;-88
2022/02/21 03:52:16;;;;;;;19.48;4.30;;;8.70;67.00;;;;;;5055106;28;20037;-90
2022/02/21 03:54:42;;;;;;;21.40;4.35;;;8.70;66.70;;;;;;5055360;28;20024;-87
2022/02/21 03:57:08;;;;;;;20.88;4.47;;;8.70;66.90;;;;;;5056487;28;20097;-87
2022/02/21 03:59:34;;;;;;;22.77;4.55;;;8.70;66.50;;;;;;5055136;28;20032;-88
2022/02/21 04:01:59;;;;;;;17.85;3.83;;;8.70;66.50;;;;;;5071021;28;20824;-87
2022/02/21 04:04:25;;;;;;;22.63;4.00;;;8.70;66.70;;;;;;5079373;28;20539;-88
2022/02/21 04:06:51;;;;;;;23.00;4.82;;;8.70;66.80;;;;;;5073373;28;20047;-88
2022/02/21 04:09:16;;;;;;;23.65;4.55;;;8.70;66.60;;;;;;5059069;28;20029;-89
2022/02/21 04:11:42;;;;;;;21.45;4.07;;;8.60;66.70;;;;;;5059518;28;20505;-87
2022/02/21 04:14:08;;;;;;;25.98;5.57;;;8.60;66.50;;;;;;5059160;28;20334;-87
2022/02/21 04:16:34;;;;;;;27.05;4.20;;;8.70;66.50;;;;;;5067601;28;20033;-88
2022/02/21 04:19:03;;;;;;;23.67;5.85;;;8.60;66.30;;;;;;5059054;28;20025;-86
2022/02/21 04:21:32;;;;;;;19.83;3.90;;;8.70;66.40;;;;;;5058958;28;20032;-87
2022/02/21 04:23:58;;;;;;;24.80;4.45;;;8.70;66.80;;;;;;5058889;28;20495;-88
2022/02/21 04:26:24;;;;;;;14.05;3.63;;;8.70;66.80;;;;;;5059940;28;20409;-87
2022/02/21 04:28:50;;;;;;;11.30;3.53;;;8.80;66.70;;;;;;5059266;28;20501;-86
2022/02/21 04:31:17;;;;;;;19.23;4.05;;;8.80;66.90;;;;;;5058791;28;20052;-88
2022/02/21 04:33:46;;;;;;;19.35;4.55;;;8.90;66.70;;;;;;5058764;28;20021;-85
2022/02/21 04:36:13;;;;;;;19.10;4.80;;;9.00;66.40;;;;;;5058534;28;20037;-87
2022/02/21 04:38:38;;;;;;;16.42;3.72;;;8.90;66.50;;;;;;5075548;28;20083;-86
2022/02/21 04:41:04;;;;;;;14.48;3.58;;;9.10;66.30;;;;;;5058830;28;20052;-88
2022/02/21 04:43:30;;;;;;;25.60;4.38;;;9.00;66.00;;;;;;5062289;28;20019;-86
2022/02/21 04:45:56;;;;;;;29.05;4.15;;;9.10;65.70;;;;;;5079492;28;20048;-87
2022/02/21 04:48:22;;;;;;;17.13;3.60;;;9.00;65.90;;;;;;5076476;28;20032;-88
2022/02/21 04:50:49;;;;;;;16.67;3.28;;;9.00;65.90;;;;;;5059524;28;20146;-87
2022/02/21 04:53:14;;;;;;;16.13;5.05;;;9.00;66.20;;;;;;5059278;28;20071;-87
2022/02/21 04:55:40;;;;;;;19.48;3.95;;;9.00;66.10;;;;;;5059518;28;20025;-87
2022/02/21 04:58:06;;;;;;;20.83;4.70;;;8.90;66.40;;;;;;5058596;28;20151;-87
2022/02/21 05:00:32;;;;;;;13.95;3.65;;;9.00;66.40;;;;;;5063027;28;20087;-87
2022/02/21 05:02:58;;;;;;;21.40;3.22;;;8.90;66.50;;;;;;5058258;28;20053;-87
2022/02/21 05:05:24;;;;;;;27.40;5.20;;;8.90;66.30;;;;;;5058555;28;20021;-87
2022/02/21 05:07:49;;;;;;;13.93;3.08;;;8.80;66.60;;;;;;5077745;28;20043;-88
2022/02/21 05:10:15;;;;;;;16.10;3.83;;;8.80;66.60;;;;;;5079387;28;20035;-88
2022/02/21 05:12:41;;;;;;;19.25;4.13;;;8.80;66.50;;;;;;5077943;28;20364;-87
2022/02/21 05:15:09;;;;;;;22.77;4.07;;;8.70;66.90;;;;;;5072552;28;20048;-86
2022/02/21 05:17:35;;;;;;;10.63;2.88;;;8.70;67.00;;;;;;5057767;28;20028;-87
2022/02/21 05:20:01;;;;;;;19.45;4.22;;;8.80;67.10;;;;;;5057786;28;20399;-87
2022/02/21 05:22:26;;;;;;;14.93;3.88;;;8.80;66.80;;;;;;5058600;28;20024;-86
2022/02/21 05:24:52;;;;;;;21.83;3.65;;;8.90;66.40;;;;;;5060544;28;20032;-86
2022/02/21 05:27:18;;;;;;;15.57;4.10;;;8.90;66.50;;;;;;5074404;28;20036;-89
2022/02/21 05:29:45;;;;;;;20.42;4.32;;;9.00;66.60;;;;;;5073513;28;20040;-86
2022/02/21 05:32:10;;;;;;;23.35;3.70;;;9.10;66.30;;;;;;5057519;28;20029;-87
2022/02/21 05:34:37;;;;;;;17.73;3.88;;;9.00;66.50;;;;;;5059072;28;20043;-90
2022/02/21 05:37:04;;;;;;;24.45;4.35;;;9.10;66.40;;;;;;5056907;28;20078;-90
2022/02/21 05:39:29;;;;;;;23.70;4.10;;;9.00;66.50;;;;;;5059895;28;20555;-90
2022/02/21 05:41:55;;;;;;;16.25;3.38;;;9.00;66.50;;;;;;5070817;28;20029;-88
2022/02/21 05:44:21;;;;;;;17.63;3.17;;;9.00;66.70;;;;;;5074405;28;20028;-90
2022/02/21 05:46:46;;;;;;;26.38;3.55;;;9.10;66.80;;;;;;5077435;28;20105;-91
2022/02/21 05:49:12;;;;;;;17.20;3.35;;;9.10;66.60;;;;;;5076838;28;20036;-90
2022/02/21 05:51:38;;;;;;;20.20;3.50;;;9.10;66.80;;;;;;5076879;28;20036;-86
2022/02/21 05:57:22;;;;;;;18.90;3.17;;;9.10;67.00;;;;;;5176563;27;20402;-91
2022/02/21 05:59:47;;;;;;;16.67;3.30;;;8.90;68.10;;;;;;5153676;27;20027;-90
2022/02/21 06:02:13;;;;;;;13.43;3.10;;;9.00;67.80;;;;;;5136586;27;20023;-86
2022/02/21 06:04:39;;;;;;;15.95;3.33;;;9.10;67.90;;;;;;5151714;27;20023;-83
2022/02/21 06:07:04;;;;;;;17.63;4.13;;;9.20;67.70;;;;;;5135886;27;20116;-87
2022/02/21 06:09:30;;;;;;;17.23;3.20;;;9.30;67.10;;;;;;5156011;27;20044;-85
2022/02/21 06:11:56;;;;;;;14.07;3.97;;;9.30;67.50;;;;;;5149831;27;20050;-80
2022/02/21 06:14:22;;;;;;;10.98;2.65;;;9.40;67.20;;;;;;5175233;27;20039;-83
2022/02/21 06:16:48;;;;;;;14.75;3.40;;;9.40;67.10;;;;;;5174851;27;20038;-78
2022/02/21 06:19:14;;;;;;;19.90;3.55;;;9.30;68.20;;;;;;5173894;27;20014;-81
2022/02/21 06:21:39;;;;;;;18.83;3.25;;;9.30;68.40;;;;;;5135550;27;20023;-86
2022/02/21 06:24:05;;;;;;;14.43;2.85;;;9.30;68.90;;;;;;5162635;27;20019;-89
2022/02/21 06:30:07;;;;;;;15.30;3.28;;;9.20;68.50;;;;;;5071538;28;20403;-91
2022/02/21 06:32:34;;;;;;;11.55;3.03;;;8.90;68.80;;;;;;5071354;28;20036;-87
2022/02/21 06:34:59;;;;;;;10.98;2.42;;;8.80;69.20;;;;;;5052731;28;20029;-88
2022/02/21 06:37:25;;;;;;;8.32;2.22;;;8.90;69.00;;;;;;5059280;28;20021;-91
2022/02/21 06:39:51;;;;;;;11.07;2.42;;;8.90;69.10;;;;;;5052440;28;20072;-82
2022/02/21 06:42:17;;;;;;;9.93;2.60;;;9.00;69.20;;;;;;5051918;28;20399;-85
2022/02/21 06:44:42;;;;;;;8.18;2.13;;;8.80;69.70;;;;;;5051963;28;20033;-84
2022/02/21 06:47:08;;;;;;;6.72;1.90;;;8.80;70.40;;;;;;5071786;28;20035;-82
2022/02/21 06:49:34;;;;;;;9.57;2.65;;;8.80;70.60;;;;;;5070612;28;20051;-83
2022/02/21 06:52:00;;;;;;;11.52;3.25;;;8.80;70.90;;;;;;5069879;28;20029;-82
2022/02/21 06:54:26;;;;;;;13.15;2.78;;;8.90;71.30;;;;;;5067615;28;20028;-83
2022/02/21 06:56:52;;;;;;;10.55;2.45;;;8.90;71.20;;;;;;5071231;28;20025;-83
2022/02/21 06:59:17;;;;;;;16.73;3.35;;;9.00;71.10;;;;;;5071240;28;20080;-82
2022/02/21 07:01:43;;;;;;;21.02;3.53;;;8.90;71.80;;;;;;5057887;28;20538;-82
2022/02/21 07:04:09;;;;;;;14.75;3.47;;;9.00;72.70;;;;;;5063000;28;20064;-82
2022/02/21 07:06:35;;;;;;;13.15;2.78;;;9.00;73.60;;;;;;5071931;28;20032;-82
2022/02/21 07:09:03;;;;;;;9.00;2.00;;;8.90;73.90;;;;;;5070803;28;20103;-82
2022/02/21 07:11:29;;;;;;;11.05;3.15;;;8.80;74.40;;;;;;5059856;28;20296;-82
2022/02/21 07:13:55;;;;;;;18.52;3.30;;;8.80;74.70;;;;;;5068987;28;20073;-81
2022/02/21 07:16:21;;;;;;;20.50;3.53;;;8.80;74.90;;;;;;5080474;28;20422;-82
2022/02/21 07:18:46;;;;;;;9.98;2.85;;;8.80;75.20;;;;;;5091199;28;20028;-81
2022/02/21 07:21:12;;;;;;;14.98;2.50;;;8.80;75.40;;;;;;5089983;28;20082;-81
2022/02/21 07:23:37;;;;;;;17.95;2.80;;;8.80;74.90;;;;;;5069702;28;20052;-80
2022/02/21 07:26:04;;;;;;;12.70;2.90;;;8.80;74.60;;;;;;5051454;28;20040;-80
2022/02/21 07:28:31;;;;;;;10.90;2.80;;;8.90;74.80;;;;;;5051400;28;20049;-81
2022/02/21 07:30:56;;;;;;;16.85;4.22;;;8.90;74.60;;;;;;5050038;28;20061;-81
2022/02/21 07:33:22;;;;;;;17.63;3.58;;;8.80;74.40;;;;;;5050003;28;20411;-81
2022/02/21 07:35:48;;;;;;;10.30;2.88;;;8.80;74.70;;;;;;5051207;28;20036;-81
2022/02/21 07:38:13;;;;;;;12.60;2.50;;;8.80;74.70;;;;;;5050482;28;20108;-80
2022/02/21 07:40:39;;;;;;;15.80;2.47;;;8.90;75.20;;;;;;5042294;28;20088;-80
2022/02/21 07:43:05;;;;;;;11.77;3.15;;;8.90;75.80;;;;;;5037712;28;20033;-80
2022/02/21 07:45:31;;;;;;;12.02;2.55;;;8.80;77.00;;;;;;5037503;28;20089;-80
2022/02/21 07:48:01;;;;;;;9.25;3.28;;;8.90;76.70;;;;;;5037641;28;20108;-80
2022/02/21 07:50:30;;;;;;;11.90;3.15;;;8.80;77.60;;;;;;5051075;28;20398;-80
2022/02/21 07:52:56;;;;;;;14.30;3.05;;;8.90;77.80;;;;;;5056637;28;20403;-80
2022/02/21 07:55:22;;;;;;;11.93;3.05;;;9.00;77.60;;;;;;5038108;28;20025;-80
2022/02/21 07:57:48;;;;;;;11.73;2.60;;;9.20;77.00;;;;;;5037110;28;20044;-80
2022/02/21 08:00:17;;;;;;;14.48;3.63;;;9.20;76.90;;;;;;5047621;28;20013;-80
2022/02/21 08:02:42;;;;;;;17.23;3.47;;;9.20;77.00;;;;;;5053985;28;20063;-80
2022/02/21 08:05:09;;;;;;;11.45;3.10;;;9.30;76.70;;;;;;5037151;28;20021;-81
2022/02/21 08:07:35;;;;;;;16.00;2.63;;;9.30;76.80;;;;;;5037290;28;20045;-81
2022/02/21 08:10:01;;;;;;;11.43;3.28;;;9.50;76.70;;;;;;5035811;28;20134;-80
2022/02/21 08:12:27;;;;;;;13.60;3.38;;;9.70;76.60;;;;;;5054317;28;20021;-81
2022/02/21 08:14:53;;;;;;;18.63;3.30;;;9.80;76.20;;;;;;5047638;28;20009;-81
2022/02/21 08:17:19;;;;;;;14.10;3.58;;;9.80;76.70;;;;;;5076045;28;20036;-81
2022/02/21 08:19:44;;;;;;;17.25;3.33;;;9.70;75.90;;;;;;5075768;28;20050;-81
2022/02/21 08:22:10;;;;;;;16.23;3.08;;;9.60;76.40;;;;;;5076555;28;20036;-81
2022/02/21 08:24:36;;;;;;;22.45;4.53;;;9.60;76.80;;;;;;5062199;28;20403;-81
2022/02/21 08:27:02;;;;;;;16.85;3.58;;;9.60;76.70;;;;;;5035428;28;20055;-81
2022/02/21 08:29:28;;;;;;;15.43;3.40;;;9.60;75.90;;;;;;5036637;28;20041;-81
2022/02/21 08:31:56;;;;;;;20.08;3.92;;;9.60;75.80;;;;;;5035635;28;20456;-81
2022/02/21 08:34:22;;;;;;;21.52;4.28;;;9.70;75.30;;;;;;5036794;28;20028;-81
2022/02/21 08:36:48;;;;;;;15.38;3.40;;;10.30;74.00;;;;;;5036668;28;20026;-82
2022/02/21 08:39:15;;;;;;;12.23;3.75;;;10.90;71.50;;;;;;5036386;28;20034;-82
2022/02/21 08:41:41;;;;;;;16.15;3.72;;;11.20;70.60;;;;;;5036702;28;20036;-81
2022/02/21 08:44:07;;;;;;;22.13;4.32;;;11.60;70.00;;;;;;5036560;28;20036;-81
2022/02/21 08:46:33;;;;;;;17.17;3.15;;;11.20;70.10;;;;;;5036169;28;20029;-81
2022/02/21 08:48:59;;;;;;;12.35;3.75;;;11.10;69.80;;;;;;5036774;28;20025;-81
2022/02/21 08:51:26;;;;;;;15.52;3.28;;;10.80;70.50;;;;;;5035643;28;20032;-81
2022/02/21 08:53:52;;;;;;;24.25;4.13;;;10.90;71.00;;;;;;5035827;28;20030;-81
2022/02/21 08:56:18;;;;;;;22.92;4.03;;;10.70;70.20;;;;;;5036239;28;20132;-81
2022/02/21 08:58:43;;;;;;;23.85;4.82;;;10.70;71.50;;;;;;5036110;28;20029;-81
2022/02/21 09:01:09;;;;;;;20.45;3.65;;;10.70;71.70;;;;;;5034767;28;20159;-81
2022/02/21 09:03:35;;;;;;;16.85;3.50;;;10.60;71.90;;;;;;5036157;28;20022;-81
2022/02/21 09:06:01;;;;;;;21.08;3.63;;;10.50;72.40;;;;;;5036154;28;20057;-81
2022/02/21 09:08:31;;;;;;;20.88;4.20;;;10.30;73.50;;;;;;5035711;28;20030;-81
2022/02/21 09:10:57;;;;;;;22.55;3.92;;;10.30;74.50;;;;;;5041029;28;20115;-81
2022/02/21 09:13:23;;;;;;;17.35;3.75;;;10.20;75.00;;;;;;5055897;28;20032;-81
2022/02/21 09:15:49;;;;;;;14.85;3.47;;;10.20;75.10;;;;;;5059633;28;20499;-81
2022/02/21 09:18:15;;;;;;;19.00;3.80;;;10.20;76.10;;;;;;5075826;28;20289;-82
2022/02/21 09:20:41;;;;;;;22.13;4.95;;;10.00;75.60;;;;;;5073855;28;20085;-82
2022/02/21 09:23:06;;;;;;;36.50;7.18;;;9.90;76.00;;;;;;5075364;28;20021;-82
2022/02/21 09:25:32;;;;;;;25.60;5.60;;;9.90;75.80;;;;;;5064120;28;20053;-83
2022/02/21 09:27:58;;;;;;;24.10;5.65;;;10.00;75.40;;;;;;5055777;28;20021;-82
2022/02/21 09:30:24;;;;;;;24.13;5.43;;;10.30;74.70;;;;;;5036922;28;20064;-82
2022/02/21 09:32:50;;;;;;;28.95;5.53;;;10.40;73.60;;;;;;5035612;28;20051;-82
2022/02/21 09:35:16;;;;;;;18.73;4.57;;;10.70;73.30;;;;;;5035366;28;20025;-82
2022/02/21 09:37:41;;;;;;;17.42;4.55;;;11.00;71.70;;;;;;5034933;28;20028;-82
2022/02/21 09:40:11;;;;;;;23.55;5.53;;;11.70;71.40;;;;;;5035564;28;20043;-82
2022/02/21 09:42:38;;;;;;;27.52;5.55;;;11.70;70.10;;;;;;5035483;28;20561;-83
2022/02/21 09:45:06;;;;;;;20.98;5.90;;;12.00;69.50;;;;;;5035616;28;20404;-83
2022/02/21 09:47:32;;;;;;;20.38;4.40;;;12.80;66.80;;;;;;5035357;28;20025;-83
2022/02/21 09:49:58;;;;;;;17.88;5.07;;;12.70;67.30;;;;;;5035449;28;20053;-83
2022/02/21 09:52:28;;;;;;;19.50;4.40;;;12.30;67.40;;;;;;5053223;28;20044;-83
2022/02/21 09:54:54;;;;;;;27.70;5.32;;;11.80;69.00;;;;;;5055291;28;20507;-83
2022/02/21 09:57:21;;;;;;;20.60;4.80;;;11.70;69.10;;;;;;5053813;28;20029;-82
2022/02/21 09:59:48;;;;;;;30.30;6.07;;;11.60;69.90;;;;;;5035876;28;20034;-83
2022/02/21 10:02:26;;;;;;;22.63;4.95;;;11.60;70.90;;;;;;5035044;28;20408;-82
2022/02/21 10:05:18;;;;;;;26.58;5.47;;;11.70;71.20;;;;;;5054556;28;20032;-83
2022/02/21 10:07:44;;;;;;;19.25;4.28;;;12.50;69.40;;;;;;5054853;28;20021;-82
2022/02/21 10:10:12;;;;;;;22.75;4.68;;;12.90;67.30;;;;;;5053483;28;20513;-83
2022/02/21 10:12:45;;;;;;;22.77;4.75;;;12.60;66.90;;;;;;5041179;28;20116;-82
2022/02/21 10:15:25;;;;;;;26.00;5.10;;;12.20;67.80;;;;;;5038974;28;20068;-83
2022/02/21 10:18:27;;;;;;;15.90;4.25;;;11.90;69.20;;;;;;5073654;28;20056;-82
2022/02/21 10:20:58;;;;;;;21.35;4.47;;;12.10;69.60;;;;;;5036386;28;20124;-82
2022/02/21 10:23:30;;;;;;;27.42;6.28;;;12.00;67.70;;;;;;5034668;28;20045;-83
2022/02/21 10:26:05;;;;;;;29.65;4.78;;;12.00;67.00;;;;;;5033684;28;20642;-83
2022/02/21 10:28:40;;;;;;;18.15;4.30;;;12.10;66.90;;;;;;5034615;28;20049;-80
2022/02/21 10:31:12;;;;;;;23.90;5.63;;;12.60;67.10;;;;;;5034878;28;20029;-81
2022/02/21 10:33:38;;;;;;;19.75;3.95;;;13.10;66.60;;;;;;5034866;28;20025;-81
2022/02/21 10:36:28;;;;;;;16.25;4.20;;;13.20;65.70;;;;;;5034781;28;20022;-81
2022/02/21 10:38:54;;;;;;;22.95;3.88;;;13.30;65.30;;;;;;5034647;28;20033;-83
2022/02/21 10:41:22;;;;;;;17.25;4.15;;;13.30;65.30;;;;;;5033843;28;20033;-80
2022/02/21 10:43:49;;;;;;;21.38;4.47;;;12.80;65.30;;;;;;5034359;28;20113;-81
2022/02/21 10:46:15;;;;;;;23.58;4.30;;;12.40;67.00;;;;;;5034687;28;20026;-80
2022/02/21 10:48:44;;;;;;;21.85;4.28;;;12.30;68.80;;;;;;5038642;28;20403;-82
2022/02/21 10:51:11;;;;;;;25.20;4.28;;;11.90;69.40;;;;;;5054707;28;20114;-80
2022/02/21 10:53:42;;;;;;;22.17;4.38;;;11.80;70.20;;;;;;5037951;28;20385;-82
2022/02/21 10:56:09;;;;;;;21.85;4.63;;;11.80;69.70;;;;;;5034667;28;20040;-82
2022/02/21 10:58:37;;;;;;;26.40;4.18;;;12.00;68.80;;;;;;5034339;28;20025;-82
2022/02/21 11:01:04;;;;;;;29.38;5.13;;;12.00;69.30;;;;;;5034352;28;20025;-82
2022/02/21 11:03:30;;;;;;;30.50;4.50;;;11.90;67.10;;;;;;5034484;28;20018;-82
2022/02/21 11:05:59;;;;;;;29.13;5.28;;;11.90;68.40;;;;;;5034134;28;20104;-82
2022/02/21 11:08:28;;;;;;;18.88;4.30;;;11.80;68.30;;;;;;5034159;28;20750;-80
2022/02/21 11:11:05;;;;;;;23.23;5.40;;;11.70;68.50;;;;;;5039128;28;20025;-82
2022/02/21 11:13:33;;;;;;;26.70;5.65;;;11.80;67.60;;;;;;5049875;28;20387;-83
2022/02/21 11:16:00;;;;;;;25.83;4.65;;;12.20;67.50;;;;;;5053717;28;20035;-82
2022/02/21 11:18:27;;;;;;;24.67;5.22;;;12.40;67.20;;;;;;5077702;28;20036;-79
2022/02/21 11:20:53;;;;;;;30.35;5.43;;;12.60;65.10;;;;;;5078091;28;20020;-80
2022/02/21 11:23:18;;;;;;;28.20;5.18;;;12.80;64.50;;;;;;5050981;28;20029;-80
2022/02/21 11:26:12;;;;;;;27.77;5.88;;;12.70;62.20;;;;;;5041012;28;20017;-80
2022/02/21 11:28:51;;;;;;;26.85;5.03;;;13.20;62.50;;;;;;5042446;28;20045;-82
2022/02/21 11:31:28;;;;;;;22.60;6.57;;;13.30;56.80;;;;;;5038089;28;20037;-82
2022/02/21 11:34:05;;;;;;;19.08;5.40;;;13.30;58.20;;;;;;5054271;28;20090;-80
2022/02/21 11:36:33;;;;;;;20.52;4.50;;;13.30;56.80;;;;;;5057833;28;20081;-80
2022/02/21 11:38:59;;;;;;;24.38;4.53;;;13.10;57.60;;;;;;5046243;28;20030;-82
2022/02/21 11:41:35;;;;;;;20.73;4.50;;;12.90;58.20;;;;;;5038902;28;20017;-82
2022/02/21 11:44:21;;;;;;;23.52;4.93;;;12.40;57.80;;;;;;5058447;28;20044;-82
2022/02/21 11:46:48;;;;;;;23.33;5.50;;;12.60;57.90;;;;;;5053739;28;20384;-82
2022/02/21 11:49:27;;;;;;;28.30;4.70;;;12.60;57.10;;;;;;5037655;28;20555;-81
2022/02/21 11:51:53;;;;;;;24.95;4.82;;;12.70;56.00;;;;;;5037692;28;20017;-87
2022/02/21 11:54:19;;;;;;;19.55;4.75;;;12.90;56.20;;;;;;5037691;28;20033;-84
2022/02/21 11:56:48;;;;;;;24.52;4.28;;;13.10;56.60;;;;;;5049811;28;20112;-83
2022/02/21 11:59:23;;;;;;;28.33;4.90;;;13.20;55.00;;;;;;5052459;28;20029;-79
2022/02/21 12:02:15;;;;;;;25.83;6.65;;;12.90;55.10;;;;;;5038282;28;20480;-84
2022/02/21 12:04:57;;;;;;;27.02;5.05;;;12.90;56.50;;;;;;5036623;28;20051;-82
2022/02/21 12:07:32;;;;;;;25.67;4.40;;;12.90;56.20;;;;;;5037489;28;20021;-83
2022/02/21 12:10:13;;;;;;;20.35;4.35;;;12.90;56.70;;;;;;5038263;28;20029;-87
2022/02/21 12:13:12;;;;;;;24.90;4.80;;;12.90;58.10;;;;;;5055117;28;20071;-84
2022/02/21 12:16:02;;;;;;;25.00;5.53;;;12.80;58.90;;;;;;5046872;28;20025;-77
2022/02/21 12:18:30;;;;;;;24.95;5.78;;;12.80;58.60;;;;;;5053486;28;20159;-81
2022/02/21 12:21:14;;;;;;;29.83;5.93;;;12.80;58.70;;;;;;5037181;28;20108;-80
2022/02/21 12:23:55;;;;;;;21.25;4.22;;;12.70;60.60;;;;;;5042608;28;20032;-80
2022/02/21 12:26:40;;;;;;;35.08;4.90;;;12.50;63.10;;;;;;5057063;28;20032;-80
2022/02/21 12:29:11;;;;;;;28.98;5.22;;;12.50;61.90;;;;;;5046056;28;20060;-80
2022/02/21 12:31:39;;;;;;;18.83;4.53;;;12.40;61.80;;;;;;5035478;28;20033;-82
2022/02/21 12:34:04;;;;;;;29.67;5.90;;;12.60;60.60;;;;;;5036973;28;20061;-88
2022/02/21 12:36:40;;;;;;;20.45;5.13;;;12.90;60.70;;;;;;5035755;28;20037;-85
2022/02/21 12:39:08;;;;;;;26.80;5.82;;;13.10;59.20;;;;;;5036665;28;20040;-77
2022/02/21 12:41:39;;;;;;;26.02;6.15;;;13.40;57.50;;;;;;5036653;28;20502;-78
2022/02/21 12:44:07;;;;;;;17.70;4.85;;;13.70;56.30;;;;;;5036377;28;20022;-78
2022/02/21 12:46:39;;;;;;;27.90;5.30;;;13.80;54.90;;;;;;5036796;28;20033;-78
2022/02/21 12:49:27;;;;;;;27.65;5.40;;;13.70;54.10;;;;;;5036173;28;20033;-77
2022/02/21 12:51:55;;;;;;;37.42;6.50;;;13.50;54.70;;;;;;5036000;28;20064;-77